createdAt,value
2019-03-22T00:00:40.853Z,42.20
2019-03-22T00:03:08.258Z,43.73
2019-03-22T00:05:35.673Z,40.80
2019-03-22T00:08:03.106Z,44.67
2019-03-22T00:10:30.528Z,42.63
2019-03-22T00:12:57.968Z,44.27
2019-03-22T00:15:25.364Z,44.13
2019-03-22T00:17:52.790Z,43.17
2019-03-22T00:20:20.255Z,41.93
2019-03-22T00:22:47.686Z,49.50
2019-03-22T00:25:15.118Z,46.27
2019-03-22T00:27:42.563Z,53.17
2019-03-22T00:30:09.988Z,50.53
2019-03-22T00:32:38.312Z,45.73
2019-03-22T00:35:05.759Z,45.97
2019-03-22T00:37:33.163Z,51.40
2019-03-22T00:40:00.623Z,52.37
2019-03-22T00:42:28.066Z,47.10
2019-03-22T00:44:55.493Z,47.53
2019-03-22T00:47:22.947Z,44.60
2019-03-22T00:49:50.322Z,44.77
2019-03-22T00:52:17.730Z,43.80
2019-03-22T00:54:45.163Z,42.77
2019-03-22T00:57:12.612Z,44.73
2019-03-22T00:59:40.096Z,43.00
2019-03-22T01:02:07.535Z,42.70
2019-03-22T01:04:34.951Z,43.43
2019-03-22T01:07:02.374Z,46.13
2019-03-22T01:09:29.819Z,44.90
2019-03-22T01:11:58.201Z,44.70
2019-03-22T01:14:25.666Z,42.87
2019-03-22T01:16:53.070Z,42.80
2019-03-22T01:19:20.470Z,48.13
2019-03-22T01:21:47.900Z,41.27
2019-03-22T01:24:15.310Z,51.43
2019-03-22T01:26:42.736Z,53.67
2019-03-22T01:29:10.146Z,47.53
2019-03-22T01:31:37.619Z,46.83
2019-03-22T01:34:05.034Z,49.03
2019-03-22T01:36:32.433Z,44.40
2019-03-22T01:38:59.898Z,42.03
2019-03-22T01:41:27.330Z,48.47
2019-03-22T01:43:54.749Z,42.20
2019-03-22T01:46:22.184Z,42.97
2019-03-22T01:48:49.585Z,42.57
2019-03-22T01:51:17.001Z,40.37
2019-03-22T01:54:04.040Z,43.67
2019-03-22T01:56:31.432Z,49.47
2019-03-22T01:58:58.857Z,44.23
2019-03-22T02:01:26.295Z,44.00
2019-03-22T02:03:53.698Z,44.63
2019-03-22T02:06:21.123Z,40.03
2019-03-22T02:08:48.527Z,42.53
2019-03-22T02:11:15.938Z,41.10
2019-03-22T02:13:43.360Z,41.33
2019-03-22T02:16:10.777Z,39.97
2019-03-22T02:18:40.984Z,40.87
2019-03-22T02:21:08.400Z,40.87
2019-03-22T02:23:35.803Z,45.17
2019-03-22T02:26:03.233Z,39.73
2019-03-22T02:28:30.666Z,41.83
2019-03-22T02:30:58.098Z,37.37
2019-03-22T02:33:25.507Z,44.37
2019-03-22T02:35:52.947Z,37.60
2019-03-22T02:38:20.358Z,39.10
2019-03-22T02:40:47.775Z,40.67
2019-03-22T02:43:15.215Z,41.97
2019-03-22T02:45:42.633Z,38.23
2019-03-22T02:48:10.031Z,40.53
2019-03-22T02:50:37.461Z,41.07
2019-03-22T02:53:04.857Z,44.03
2019-03-22T02:55:32.313Z,46.60
2019-03-22T02:57:59.724Z,44.80
2019-03-22T03:00:27.175Z,52.10
2019-03-22T03:02:54.574Z,55.50
2019-03-22T03:05:21.984Z,47.43
2019-03-22T03:07:49.535Z,49.53
2019-03-22T03:10:16.938Z,52.67
2019-03-22T03:12:44.372Z,53.37
2019-03-22T03:15:11.802Z,63.20
2019-03-22T03:17:39.221Z,67.40
2019-03-22T03:20:09.328Z,65.97
2019-03-22T03:22:36.790Z,57.23
2019-03-22T03:25:04.200Z,57.00
2019-03-22T03:27:51.560Z,66.47
2019-03-22T03:30:21.519Z,65.47
2019-03-22T03:32:49.062Z,64.90
2019-03-22T03:35:16.564Z,70.57
2019-03-22T03:37:43.998Z,56.73
2019-03-22T03:40:11.402Z,68.07
2019-03-22T03:42:38.850Z,55.77
2019-03-22T03:45:24.871Z,68.43
2019-03-22T03:47:52.300Z,59.90
2019-03-22T03:50:19.705Z,56.87
2019-03-22T03:52:47.141Z,67.27
2019-03-22T03:55:34.160Z,54.90
2019-03-22T03:58:01.583Z,45.40
2019-03-22T04:00:28.997Z,73.70
2019-03-22T04:02:56.415Z,75.10
2019-03-22T04:05:23.815Z,55.10
2019-03-22T04:07:51.247Z,60.00
2019-03-22T04:10:18.691Z,63.43
2019-03-22T04:12:46.092Z,51.07
2019-03-22T04:15:13.540Z,53.10
2019-03-22T04:17:40.977Z,62.80
2019-03-22T04:20:08.385Z,54.37
2019-03-22T04:22:36.515Z,62.83
2019-03-22T04:25:03.518Z,51.10
2019-03-22T04:27:30.946Z,47.77
2019-03-22T04:29:58.362Z,49.20
2019-03-22T04:32:25.806Z,63.55
2019-03-22T04:34:53.240Z,46.67
2019-03-22T04:37:20.629Z,51.33
2019-03-22T04:39:48.033Z,79.37
2019-03-22T04:42:15.463Z,124.40
2019-03-22T04:44:42.902Z,84.43
2019-03-22T04:47:10.306Z,64.23
2019-03-22T04:49:37.738Z,73.80
2019-03-22T04:52:05.172Z,65.43
2019-03-22T04:54:32.620Z,62.17
2019-03-22T04:57:00.033Z,50.00
2019-03-22T04:59:27.473Z,66.00
2019-03-22T05:01:54.909Z,61.93
2019-03-22T05:04:22.317Z,69.40
2019-03-22T05:06:49.759Z,66.70
2019-03-22T05:09:17.195Z,63.80
2019-03-22T05:11:44.629Z,62.93
2019-03-22T05:14:12.041Z,75.07
2019-03-22T05:16:39.481Z,61.10
2019-03-22T05:19:06.886Z,61.10
2019-03-22T05:21:34.323Z,65.37
2019-03-22T05:24:01.746Z,65.23
2019-03-22T05:26:29.150Z,62.53
2019-03-22T05:28:56.576Z,62.80
2019-03-22T05:31:23.977Z,60.13
2019-03-22T05:33:51.404Z,57.87
2019-03-22T05:36:18.830Z,64.77
2019-03-22T05:38:46.260Z,71.37
2019-03-22T05:41:13.840Z,60.10
2019-03-22T05:43:41.107Z,77.17
2019-03-22T05:46:08.517Z,61.20
2019-03-22T05:48:35.926Z,76.77
2019-03-22T05:51:03.351Z,76.07
2019-03-22T05:53:30.774Z,55.03
2019-03-22T05:55:58.213Z,77.00
2019-03-22T05:58:25.626Z,64.87
2019-03-22T06:00:53.034Z,64.07
2019-03-22T06:03:20.472Z,70.93
2019-03-22T06:05:47.866Z,74.30
2019-03-22T06:08:15.287Z,69.33
2019-03-22T06:10:42.698Z,67.17
2019-03-22T06:13:10.114Z,57.43
2019-03-22T06:15:37.528Z,53.87
2019-03-22T06:18:04.943Z,55.00
2019-03-22T06:20:32.375Z,49.03
2019-03-22T06:22:59.813Z,65.97
2019-03-22T06:25:27.238Z,48.33
2019-03-22T06:27:54.642Z,53.27
2019-03-22T06:30:22.166Z,53.43
2019-03-22T06:32:49.544Z,44.70
2019-03-22T06:35:16.976Z,46.50
2019-03-22T06:37:44.400Z,57.67
2019-03-22T06:40:11.894Z,46.43
2019-03-22T06:42:39.273Z,49.13
2019-03-22T06:45:06.677Z,41.77
2019-03-22T06:47:34.122Z,43.03
2019-03-22T06:50:01.554Z,42.40
2019-03-22T06:52:28.973Z,35.17
2019-03-22T06:54:56.403Z,45.63
2019-03-22T06:57:25.089Z,33.40
2019-03-22T06:59:52.513Z,38.73
2019-03-22T07:02:19.940Z,40.97
2019-03-22T07:04:47.363Z,43.50
2019-03-22T07:07:14.764Z,40.87
2019-03-22T07:09:42.191Z,39.50
2019-03-22T07:12:09.607Z,30.93
2019-03-22T07:14:37.018Z,38.57
2019-03-22T07:17:04.443Z,34.00
2019-03-22T07:19:31.845Z,31.90
2019-03-22T07:21:59.247Z,30.47
2019-03-22T07:24:26.683Z,29.57
2019-03-22T07:26:54.133Z,36.13
2019-03-22T07:29:21.522Z,34.70
2019-03-22T07:31:48.923Z,37.13
2019-03-22T07:34:16.356Z,36.13
2019-03-22T07:36:43.755Z,34.43
2019-03-22T07:39:11.168Z,34.37
2019-03-22T07:41:38.566Z,30.57
2019-03-22T07:44:05.993Z,33.93
2019-03-22T07:46:33.412Z,31.73
2019-03-22T07:49:00.835Z,32.33
2019-03-22T07:51:28.247Z,35.30
2019-03-22T07:53:55.695Z,29.43
2019-03-22T07:56:23.109Z,28.17
2019-03-22T07:58:50.522Z,29.10
2019-03-22T08:01:17.950Z,29.60
2019-03-22T08:03:45.361Z,32.33
2019-03-22T08:06:12.793Z,26.57
2019-03-22T08:08:40.213Z,23.93
2019-03-22T08:11:07.644Z,28.07
2019-03-22T08:13:35.055Z,23.43
2019-03-22T08:16:02.494Z,25.93
2019-03-22T08:18:29.918Z,30.07
2019-03-22T08:20:57.302Z,26.93
2019-03-22T08:23:24.739Z,25.83
2019-03-22T08:25:52.153Z,27.27
2019-03-22T08:28:19.578Z,31.40
2019-03-22T08:30:46.985Z,25.83
2019-03-22T08:33:14.423Z,28.50
2019-03-22T08:35:41.842Z,24.63
2019-03-22T08:38:09.251Z,24.60
2019-03-22T08:40:36.659Z,25.33
2019-03-22T08:43:04.059Z,24.60
2019-03-22T08:45:31.527Z,24.53
2019-03-22T08:47:58.898Z,24.73
2019-03-22T08:50:26.330Z,27.37
2019-03-22T08:52:53.777Z,24.80
2019-03-22T08:55:21.185Z,25.30
2019-03-22T08:57:48.601Z,25.13
2019-03-22T09:00:16.010Z,26.03
2019-03-22T09:02:43.417Z,27.13
2019-03-22T09:05:10.845Z,23.53
2019-03-22T09:07:38.278Z,25.57
2019-03-22T09:10:05.775Z,26.10
2019-03-22T09:12:33.131Z,23.13
2019-03-22T09:15:00.584Z,23.30
2019-03-22T09:17:27.952Z,25.90
2019-03-22T09:19:55.443Z,22.87
2019-03-22T09:22:22.831Z,21.13
2019-03-22T09:24:50.271Z,22.00
2019-03-22T09:27:17.681Z,21.03
2019-03-22T09:29:47.296Z,22.33
2019-03-22T09:32:12.517Z,21.03
2019-03-22T09:34:39.969Z,18.40
2019-03-22T09:37:09.075Z,20.30
2019-03-22T09:39:35.723Z,19.60
2019-03-22T09:42:03.130Z,17.43
2019-03-22T09:44:42.773Z,18.97
2019-03-22T09:46:57.965Z,20.07
2019-03-22T09:49:25.417Z,19.47
2019-03-22T09:51:55.082Z,21.13
2019-03-22T09:54:20.320Z,19.90
2019-03-22T09:56:47.862Z,19.70
2019-03-22T09:59:15.235Z,20.30
2019-03-22T10:01:42.672Z,18.80
2019-03-22T10:04:10.132Z,17.53
2019-03-22T10:06:37.476Z,17.67
2019-03-22T10:09:05.481Z,17.30
2019-03-22T10:11:32.344Z,16.67
2019-03-22T10:13:59.775Z,21.00
2019-03-22T10:16:27.167Z,17.13
2019-03-22T10:18:54.601Z,18.60
2019-03-22T10:21:23.620Z,17.33
2019-03-22T10:23:49.419Z,17.07
2019-03-22T10:26:16.990Z,17.60
2019-03-22T10:28:44.295Z,16.90
2019-03-22T10:31:11.723Z,16.90
2019-03-22T10:33:39.186Z,18.33
2019-03-22T10:36:06.614Z,19.00
2019-03-22T10:38:34.015Z,17.50
2019-03-22T10:41:01.421Z,17.67
2019-03-22T10:43:28.839Z,15.53
2019-03-22T10:45:56.281Z,15.27
2019-03-22T10:48:23.909Z,17.20
2019-03-22T10:50:51.275Z,16.03
2019-03-22T10:53:18.713Z,16.13
2019-03-22T10:55:46.139Z,16.20
2019-03-22T10:58:20.841Z,18.27
2019-03-22T11:00:40.995Z,17.70
2019-03-22T11:03:08.402Z,16.83
2019-03-22T11:05:35.834Z,19.23
2019-03-22T11:08:03.256Z,18.80
2019-03-22T11:10:30.687Z,18.57
2019-03-22T11:12:58.081Z,16.83
2019-03-22T11:15:25.539Z,16.57
2019-03-22T11:17:52.936Z,19.17
2019-03-22T11:20:20.392Z,17.60
2019-03-22T11:22:47.801Z,17.00
2019-03-22T11:25:15.300Z,17.27
2019-03-22T11:27:42.695Z,17.20
2019-03-22T11:30:12.525Z,18.10
2019-03-22T11:32:39.950Z,18.63
2019-03-22T11:35:07.359Z,18.30
2019-03-22T11:37:34.791Z,18.97
2019-03-22T11:40:02.219Z,17.97
2019-03-22T11:42:29.646Z,18.07
2019-03-22T11:44:57.049Z,21.33
2019-03-22T11:47:24.462Z,21.17
2019-03-22T11:49:51.898Z,20.47
2019-03-22T11:52:19.300Z,19.87
2019-03-22T11:54:46.716Z,19.00
2019-03-22T11:57:14.120Z,20.63
2019-03-22T11:59:41.543Z,19.50
2019-03-22T12:02:08.941Z,16.20
2019-03-22T12:04:36.370Z,13.37
2019-03-22T12:07:03.787Z,14.93
2019-03-22T12:09:31.321Z,14.47
2019-03-22T12:11:58.606Z,14.30
2019-03-22T12:14:26.010Z,15.33
2019-03-22T12:16:53.438Z,15.90
2019-03-22T12:19:20.863Z,15.20
2019-03-22T12:21:48.311Z,14.00
2019-03-22T12:24:15.685Z,14.13
2019-03-22T12:26:43.111Z,14.80
2019-03-22T12:29:10.558Z,14.43
2019-03-22T12:31:37.997Z,14.60
2019-03-22T12:34:05.399Z,14.73
2019-03-22T12:36:32.833Z,12.50
2019-03-22T12:39:00.234Z,12.27
2019-03-22T12:41:27.657Z,13.23
2019-03-22T12:43:55.082Z,11.50
2019-03-22T12:46:22.509Z,12.27
2019-03-22T12:48:49.931Z,13.70
2019-03-22T12:51:17.372Z,13.20
2019-03-22T12:53:44.793Z,13.07
2019-03-22T12:56:12.341Z,12.37
2019-03-22T12:58:39.770Z,11.93
2019-03-22T13:01:07.185Z,12.23
2019-03-22T13:03:34.578Z,10.87
2019-03-22T13:06:01.996Z,12.07
2019-03-22T13:08:29.432Z,11.50
2019-03-22T13:10:56.839Z,12.20
2019-03-22T13:13:24.297Z,12.23
2019-03-22T13:15:51.767Z,13.63
2019-03-22T13:18:19.194Z,13.10
2019-03-22T13:20:46.621Z,11.30
2019-03-22T13:23:14.021Z,12.00
2019-03-22T13:25:41.454Z,10.40
2019-03-22T13:28:08.869Z,10.93
2019-03-22T13:30:36.329Z,10.70
2019-03-22T13:33:03.751Z,10.43
2019-03-22T13:35:31.156Z,11.03
2019-03-22T13:37:58.591Z,11.00
2019-03-22T13:40:25.996Z,10.90
2019-03-22T13:42:53.421Z,11.23
2019-03-22T13:45:20.958Z,10.57
2019-03-22T13:47:48.391Z,11.00
2019-03-22T13:50:15.793Z,10.50
2019-03-22T13:52:43.250Z,10.77
2019-03-22T13:55:10.606Z,8.67
2019-03-22T13:57:38.029Z,8.17
2019-03-22T14:00:08.273Z,7.50
2019-03-22T14:02:35.700Z,7.50
2019-03-22T14:05:03.100Z,7.17
2019-03-22T14:07:30.499Z,7.97
2019-03-22T14:09:57.944Z,7.40
2019-03-22T14:12:25.359Z,7.33
2019-03-22T14:14:52.789Z,7.70
2019-03-22T14:17:20.190Z,7.23
2019-03-22T14:19:47.675Z,8.37
2019-03-22T14:22:15.088Z,7.60
2019-03-22T14:24:42.515Z,7.87
2019-03-22T14:27:09.935Z,8.37
2019-03-22T14:29:37.347Z,7.80
2019-03-22T14:32:04.782Z,8.03
2019-03-22T14:34:32.212Z,7.27
2019-03-22T14:36:59.621Z,8.40
2019-03-22T14:39:27.061Z,8.67
2019-03-22T14:41:54.481Z,8.80
2019-03-22T14:44:25.838Z,8.77
2019-03-22T14:46:49.297Z,8.30
2019-03-22T14:49:18.128Z,8.07
2019-03-22T14:51:45.547Z,9.40
2019-03-22T14:54:12.943Z,8.90
2019-03-22T14:56:40.442Z,8.60
2019-03-22T14:59:07.861Z,8.03
2019-03-22T15:01:35.279Z,9.20
2019-03-22T15:04:02.683Z,9.23
2019-03-22T15:06:30.277Z,8.50
2019-03-22T15:08:57.688Z,8.63
2019-03-22T15:11:25.127Z,9.27
2019-03-22T15:14:07.454Z,9.60
2019-03-22T15:16:37.995Z,9.60
2019-03-22T15:19:08.113Z,8.00
2019-03-22T15:21:50.625Z,8.63
2019-03-22T15:24:30.261Z,9.37
2019-03-22T15:27:09.543Z,10.17
2019-03-22T15:29:43.065Z,9.70
2019-03-22T15:32:13.432Z,10.10
2019-03-22T15:34:43.454Z,9.80
2019-03-22T15:37:28.964Z,9.77
2019-03-22T15:40:01.768Z,10.40
2019-03-22T15:42:29.184Z,9.93
2019-03-22T15:44:56.654Z,8.63
2019-03-22T15:47:24.052Z,8.70
2019-03-22T15:49:51.464Z,8.80
2019-03-22T15:52:18.873Z,8.40
2019-03-22T15:54:46.282Z,8.70
2019-03-22T15:57:13.703Z,9.63
2019-03-22T15:59:41.144Z,9.40
2019-03-22T16:02:08.567Z,9.87
2019-03-22T16:04:36.071Z,9.23
2019-03-22T16:07:03.458Z,8.97
2019-03-22T16:09:31.191Z,9.63
2019-03-22T16:11:58.581Z,8.60
2019-03-22T16:14:25.971Z,9.53
2019-03-22T16:16:53.402Z,10.27
2019-03-22T16:19:20.836Z,9.60
2019-03-22T16:21:48.300Z,9.73
2019-03-22T16:24:15.747Z,9.57
2019-03-22T16:26:43.135Z,9.10
2019-03-22T16:29:10.557Z,10.00
2019-03-22T16:31:37.962Z,8.80
2019-03-22T16:34:05.374Z,8.73
2019-03-22T16:36:32.815Z,9.27
2019-03-22T16:39:00.211Z,9.20
2019-03-22T16:41:27.646Z,10.13
2019-03-22T16:43:55.099Z,9.40
2019-03-22T16:46:22.510Z,9.90
2019-03-22T16:48:49.959Z,10.10
2019-03-22T16:51:17.385Z,9.40
2019-03-22T16:53:44.796Z,9.53
2019-03-22T16:56:12.287Z,10.07
2019-03-22T16:58:39.686Z,9.67
2019-03-22T17:01:07.092Z,9.13
2019-03-22T17:03:34.542Z,9.37
2019-03-22T17:06:01.972Z,9.47
2019-03-22T17:08:29.419Z,9.40
2019-03-22T17:10:56.911Z,9.33
2019-03-22T17:13:24.392Z,9.33
2019-03-22T17:15:51.876Z,9.53
2019-03-22T17:18:19.251Z,8.80
2019-03-22T17:20:46.662Z,8.63
2019-03-22T17:23:14.176Z,8.87
2019-03-22T17:25:41.598Z,9.67
2019-03-22T17:28:09.043Z,8.07
2019-03-22T17:30:36.503Z,8.27
2019-03-22T17:33:03.932Z,9.30
2019-03-22T17:35:31.325Z,9.73
2019-03-22T17:37:58.748Z,10.90
2019-03-22T17:40:26.237Z,10.63
2019-03-22T17:42:53.668Z,12.70
2019-03-22T17:45:21.080Z,12.53
2019-03-22T17:47:48.512Z,11.67
2019-03-22T17:50:15.925Z,11.60
2019-03-22T17:52:43.414Z,10.73
2019-03-22T17:55:10.965Z,10.13
2019-03-22T17:57:38.401Z,10.10
2019-03-22T18:00:05.809Z,9.73
2019-03-22T18:02:33.265Z,10.20
2019-03-22T18:05:00.675Z,9.30
2019-03-22T18:07:28.113Z,10.27
2019-03-22T18:09:55.527Z,9.83
2019-03-22T18:12:22.954Z,9.67
2019-03-22T18:14:50.350Z,10.73
2019-03-22T18:17:17.782Z,9.50
2019-03-22T18:19:45.189Z,9.83
2019-03-22T18:22:12.581Z,10.20
2019-03-22T18:24:40.012Z,10.47
2019-03-22T18:27:07.455Z,9.77
2019-03-22T18:29:34.870Z,9.80
2019-03-22T18:32:02.264Z,10.57
2019-03-22T18:34:34.264Z,11.07
2019-03-22T18:36:57.120Z,11.87
2019-03-22T18:39:24.549Z,10.63
2019-03-22T18:41:51.964Z,11.30
2019-03-22T18:44:19.393Z,11.03
2019-03-22T18:46:46.804Z,10.80
2019-03-22T18:49:14.246Z,10.77
2019-03-22T18:51:41.675Z,10.17
2019-03-22T18:54:09.104Z,11.33
2019-03-22T18:56:36.536Z,10.40
2019-03-22T18:59:03.960Z,11.20
2019-03-22T19:01:31.459Z,10.67
2019-03-22T19:03:58.874Z,10.70
2019-03-22T19:06:26.308Z,10.80
2019-03-22T19:08:53.747Z,11.27
2019-03-22T19:11:21.178Z,10.60
2019-03-22T19:13:48.606Z,11.30
2019-03-22T19:16:16.023Z,10.73
2019-03-22T19:18:43.463Z,10.57
2019-03-22T19:21:10.954Z,10.30
2019-03-22T19:23:38.450Z,11.13
2019-03-22T19:26:06.209Z,11.47
2019-03-22T19:28:33.624Z,10.87
2019-03-22T19:31:01.019Z,11.30
2019-03-22T19:33:28.483Z,11.17
2019-03-22T19:35:55.893Z,10.90
2019-03-22T19:38:23.343Z,11.23
2019-03-22T19:40:51.046Z,11.27
2019-03-22T19:43:18.444Z,11.27
2019-03-22T19:45:45.876Z,11.87
2019-03-22T19:48:13.303Z,11.47
2019-03-22T19:50:40.736Z,11.87
2019-03-22T19:53:08.141Z,11.10
2019-03-22T19:55:35.585Z,12.43
2019-03-22T19:58:03.024Z,11.23
2019-03-22T20:00:30.459Z,12.83
2019-03-22T20:02:57.903Z,11.97
2019-03-22T20:05:28.037Z,12.73
2019-03-22T20:07:55.426Z,12.23
2019-03-22T20:10:22.872Z,11.57
2019-03-22T20:12:50.291Z,13.20
2019-03-22T20:15:17.706Z,12.90
2019-03-22T20:17:45.132Z,12.90
2019-03-22T20:20:12.555Z,13.23
2019-03-22T20:22:39.980Z,12.97
2019-03-22T20:25:07.419Z,14.27
2019-03-22T20:27:34.821Z,14.70
2019-03-22T20:30:02.297Z,16.30
2019-03-22T20:32:29.736Z,16.20
2019-03-22T20:34:57.177Z,15.77
2019-03-22T20:37:24.582Z,15.53
2019-03-22T20:39:52.034Z,15.13
2019-03-22T20:42:19.436Z,15.87
2019-03-22T20:44:46.890Z,15.97
2019-03-22T20:47:14.305Z,16.40
2019-03-22T20:49:41.772Z,16.13
2019-03-22T20:52:09.194Z,16.43
2019-03-22T20:54:36.688Z,17.70
2019-03-22T20:57:04.119Z,16.97
2019-03-22T20:59:31.526Z,18.37
2019-03-22T21:01:58.953Z,19.57
2019-03-22T21:04:26.392Z,17.37
2019-03-22T21:06:53.853Z,19.40
2019-03-22T21:09:21.269Z,20.93
2019-03-22T21:11:48.726Z,19.70
2019-03-22T21:14:16.126Z,20.13
2019-03-22T21:16:43.538Z,21.93
2019-03-22T21:19:10.981Z,21.87
2019-03-22T21:21:38.380Z,22.30
2019-03-22T21:24:05.837Z,24.57
2019-03-22T21:26:33.274Z,28.00
2019-03-22T21:29:00.719Z,23.50
2019-03-22T21:31:28.157Z,24.20
2019-03-22T21:33:55.619Z,26.50
2019-03-22T21:36:23.282Z,25.87
2019-03-22T21:38:50.711Z,26.03
2019-03-22T21:41:18.151Z,25.57
2019-03-22T21:43:45.657Z,28.00
2019-03-22T21:46:13.055Z,26.90
2019-03-22T21:48:40.479Z,26.80
2019-03-22T21:51:07.917Z,29.67
2019-03-22T21:53:35.325Z,29.93
2019-03-22T21:56:02.789Z,29.40
2019-03-22T21:58:30.196Z,30.40
2019-03-22T22:00:57.600Z,33.07
2019-03-22T22:03:25.062Z,31.87
2019-03-22T22:05:52.477Z,31.80
2019-03-22T22:08:19.922Z,31.27
2019-03-22T22:10:47.328Z,31.53
2019-03-22T22:13:14.778Z,34.07
2019-03-22T22:15:42.232Z,33.77
2019-03-22T22:18:09.655Z,27.80
2019-03-22T22:20:37.121Z,30.67
2019-03-22T22:23:04.557Z,30.90
2019-03-22T22:25:32.154Z,29.23
2019-03-22T22:27:59.601Z,31.30
2019-03-22T22:30:27.030Z,31.90
2019-03-22T22:32:54.427Z,33.10
2019-03-22T22:35:21.853Z,33.60
2019-03-22T22:37:49.285Z,31.40
2019-03-22T22:40:16.792Z,34.20
2019-03-22T22:42:44.240Z,35.33
2019-03-22T22:45:11.661Z,37.37
2019-03-22T22:47:39.092Z,41.27
2019-03-22T22:50:06.504Z,43.13
2019-03-22T22:52:34.014Z,43.60
2019-03-22T22:55:01.439Z,41.10
2019-03-22T22:57:28.871Z,48.77
2019-03-22T22:59:56.304Z,50.07
2019-03-22T23:02:23.717Z,51.40
2019-03-22T23:04:51.159Z,51.47
2019-03-22T23:07:18.577Z,56.90
2019-03-22T23:09:45.988Z,55.30
2019-03-22T23:12:13.423Z,60.40
2019-03-22T23:14:40.850Z,59.53
2019-03-22T23:17:08.255Z,59.87
2019-03-22T23:19:35.686Z,57.73
2019-03-22T23:22:03.100Z,59.37
2019-03-22T23:24:30.538Z,57.97
2019-03-22T23:26:57.953Z,58.93
2019-03-22T23:29:25.411Z,53.37
2019-03-22T23:31:53.077Z,66.47
2019-03-22T23:34:20.485Z,56.33
2019-03-22T23:36:47.917Z,57.37
2019-03-22T23:39:15.339Z,61.57
2019-03-22T23:41:42.746Z,59.80
2019-03-22T23:44:10.174Z,59.33
2019-03-22T23:46:37.621Z,65.50
2019-03-22T23:49:05.046Z,63.67
2019-03-22T23:51:32.463Z,62.03
2019-03-22T23:53:59.900Z,62.27
2019-03-22T23:56:27.320Z,61.37
2019-03-22T23:58:54.753Z,62.07
